Time,TemperatureF,DewpointF,PressureIn,WindDirection,WindDirectionDegrees,WindSpeedMPH,WindSpeedGustMPH,Humidity,HourlyPrecipIn,Conditions,Clouds,dailyrainin,SoftwareType,DateUTC
2013-06-28 00:01:00,63.5,57.9,29.64,WNW,292,4.3,9.2,82,0.00,,,0.00,WUHU21623XXSP,2013-06-28 05:01:00,
2013-06-28 00:06:00,63.5,57.9,29.64,WNW,292,4.5,28.4,82,0.00,,,0.00,WUHU21623XXSP,2013-06-28 05:06:00,
2013-06-28 00:11:00,63.5,57.9,29.64,WNW,292,2.9,28.4,82,0.00,,,0.00,WUHU21623XXSP,2013-06-28 05:11:00,
2013-06-28 00:16:00,63.0,57.3,29.64,NW,315,0.7,11.0,82,0.00,,,0.00,WUHU21623XXSP,2013-06-28 05:16:00,
2013-06-28 00:21:00,62.4,57.5,29.64,NW,315,8.3,11.0,84,0.00,,,0.00,WUHU21623XXSP,2013-06-28 05:21:00,
2013-06-28 00:26:00,62.4,57.5,29.64,NW,308,3.8,11.0,84,0.00,,,0.00,WUHU21623XXSP,2013-06-28 05:26:00,
2013-06-28 00:31:00,62.1,57.5,29.64,NW,315,4.7,8.3,85,0.00,,,0.00,WUHU21623XXSP,2013-06-28 05:31:00,
2013-06-28 00:36:00,61.9,57.3,29.64,NW,315,3.6,8.9,85,0.00,,,0.00,WUHU21623XXSP,2013-06-28 05:36:00,
2013-06-28 00:41:00,61.7,57.5,29.64,WNW,292,3.4,11.9,86,0.00,,,0.00,WUHU21623XXSP,2013-06-28 05:41:00,
2013-06-28 00:46:00,61.7,57.5,29.63,NW,315,6.9,11.9,86,0.02,,,0.02,WUHU21623XXSP,2013-06-28 05:46:00,
2013-06-28 00:51:00,61.5,57.3,29.63,WNW,292,6.3,9.6,86,0.02,,,0.02,WUHU21623XXSP,2013-06-28 05:51:00,
2013-06-28 00:56:00,61.5,57.3,29.64,WNW,292,0.0,9.6,86,0.02,,,0.02,WUHU21623XXSP,2013-06-28 05:56:00,
2013-06-28 01:01:00,61.3,57.1,29.63,West,270,2.0,8.9,86,0.02,,,0.02,WUHU21623XXSP,2013-06-28 06:01:00,
2013-06-28 01:06:00,61.3,57.1,29.63,NW,315,1.3,8.9,86,0.02,,,0.02,WUHU21623XXSP,2013-06-28 06:06:00,
2013-06-28 01:11:00,61.3,57.5,29.63,NNW,337,6.7,9.8,87,0.02,,,0.02,WUHU21623XXSP,2013-06-28 06:11:00,
2013-06-28 01:16:00,61.2,57.3,29.63,NW,315,3.1,12.3,87,0.04,,,0.04,WUHU21623XXSP,2013-06-28 06:16:00,
2013-06-28 01:21:00,61.3,57.5,29.63,NNW,337,6.0,12.3,87,0.04,,,0.04,WUHU21623XXSP,2013-06-28 06:21:00,
2013-06-28 01:26:00,61.3,57.5,29.63,WNW,292,2.7,7.6,87,0.04,,,0.04,WUHU21623XXSP,2013-06-28 06:26:00,
2013-06-28 01:31:00,61.2,57.3,29.63,WNW,292,3.6,9.4,87,0.04,,,0.04,WUHU21623XXSP,2013-06-28 06:31:00,
2013-06-28 01:36:00,61.2,57.3,29.63,West,270,0.0,9.4,87,0.04,,,0.04,WUHU21623XXSP,2013-06-28 06:36:00,
2013-06-28 01:41:00,61.2,57.3,29.63,WNW,292,4.0,8.7,87,0.04,,,0.04,WUHU21623XXSP,2013-06-28 06:41:00,
2013-06-28 01:46:00,61.0,57.1,29.63,WNW,292,1.8,8.7,87,0.02,,,0.04,WUHU21623XXSP,2013-06-28 06:46:00,
2013-06-28 01:51:00,61.0,57.1,29.63,NNW,337,7.4,9.4,87,0.02,,,0.04,WUHU21623XXSP,2013-06-28 06:51:00,
2013-06-28 01:56:00,61.2,57.3,29.63,NW,315,0.0,9.4,87,0.02,,,0.04,WUHU21623XXSP,2013-06-28 06:56:00,
2013-06-28 02:01:00,61.0,57.1,29.63,NW,315,3.8,8.7,87,0.02,,,0.04,WUHU21623XXSP,2013-06-28 07:01:00,
2013-06-28 02:06:00,61.2,57.3,29.63,NW,315,7.8,8.7,87,0.02,,,0.04,WUHU21623XXSP,2013-06-28 07:06:00,
2013-06-28 02:11:00,61.2,57.3,29.63,NW,315,6.0,7.8,87,0.02,,,0.04,WUHU21623XXSP,2013-06-28 07:11:00,
2013-06-28 02:16:00,61.0,57.1,29.63,NW,315,1.8,7.8,87,0.00,,,0.04,WUHU21623XXSP,2013-06-28 07:16:00,
2013-06-28 02:21:00,61.0,57.1,29.63,NW,315,2.7,7.8,87,0.00,,,0.04,WUHU21623XXSP,2013-06-28 07:21:00,
2013-06-28 02:26:00,61.0,57.4,29.63,NW,315,0.9,7.8,88,0.00,,,0.04,WUHU21623XXSP,2013-06-28 07:26:00,
2013-06-28 02:31:00,61.0,57.4,29.63,NW,315,3.6,8.7,88,0.00,,,0.04,WUHU21623XXSP,2013-06-28 07:31:00,
2013-06-28 02:36:00,61.2,57.6,29.63,NW,315,0.9,8.7,88,0.00,,,0.04,WUHU21623XXSP,2013-06-28 07:36:00,
2013-06-28 02:41:00,61.0,57.4,29.63,NNW,337,7.6,10.5,88,0.00,,,0.04,WUHU21623XXSP,2013-06-28 07:41:00,
2013-06-28 02:46:00,61.0,57.4,29.63,NW,315,4.7,10.5,88,0.00,,,0.04,WUHU21623XXSP,2013-06-28 07:46:00,
2013-06-28 02:51:00,61.0,57.4,29.63,NW,315,6.5,11.4,88,0.00,,,0.04,WUHU21623XXSP,2013-06-28 07:51:00,
2013-06-28 02:56:00,61.0,57.4,29.63,WNW,292,5.8,11.4,88,0.00,,,0.04,WUHU21623XXSP,2013-06-28 07:56:00,
2013-06-28 03:01:00,61.0,57.1,29.62,NW,315,3.8,7.6,87,0.00,,,0.04,WUHU21623XXSP,2013-06-28 08:01:00,
2013-06-28 03:06:00,61.2,57.3,29.62,NNW,337,6.0,7.6,87,0.00,,,0.04,WUHU21623XXSP,2013-06-28 08:06:00,
2013-06-28 03:11:00,61.0,57.1,29.63,WNW,292,3.6,7.4,87,0.00,,,0.04,WUHU21623XXSP,2013-06-28 08:11:00,
2013-06-28 03:16:00,61.0,57.1,29.63,WNW,292,0.0,6.3,87,0.00,,,0.04,WUHU21623XXSP,2013-06-28 08:16:00,
2013-06-28 03:21:00,61.0,57.1,29.62,NW,315,4.7,8.1,87,0.00,,,0.04,WUHU21623XXSP,2013-06-28 08:21:00,
2013-06-28 03:26:00,61.2,57.3,29.62,WNW,292,0.0,8.1,87,0.00,,,0.04,WUHU21623XXSP,2013-06-28 08:26:00,
2013-06-28 03:31:00,61.2,57.3,29.62,WNW,292,2.5,7.6,87,0.00,,,0.04,WUHU21623XXSP,2013-06-28 08:31:00,
2013-06-28 03:36:00,61.0,57.1,29.62,NW,315,2.7,7.6,87,0.00,,,0.04,WUHU21623XXSP,2013-06-28 08:36:00,
2013-06-28 03:41:00,61.0,57.1,29.62,NW,315,1.3,10.5,87,0.00,,,0.04,WUHU21623XXSP,2013-06-28 08:41:00,
2013-06-28 03:46:00,61.0,57.1,29.62,WNW,292,2.5,10.5,87,0.00,,,0.04,WUHU21623XXSP,2013-06-28 08:46:00,
2013-06-28 03:51:00,61.0,57.1,29.62,NW,315,2.9,8.3,87,0.00,,,0.04,WUHU21623XXSP,2013-06-28 08:51:00,
2013-06-28 03:56:00,61.0,57.1,29.62,NW,315,3.8,8.1,87,0.00,,,0.04,WUHU21623XXSP,2013-06-28 08:56:00,
2013-06-28 04:01:00,61.0,57.1,29.62,WNW,292,2.5,8.1,87,0.00,,,0.04,WUHU21623XXSP,2013-06-28 09:01:00,
2013-06-28 04:06:00,61.0,57.1,29.62,WNW,292,0.0,8.1,87,0.00,,,0.04,WUHU21623XXSP,2013-06-28 09:06:00,
2013-06-28 04:11:00,61.0,57.1,29.62,NW,315,2.2,7.2,87,0.00,,,0.04,WUHU21623XXSP,2013-06-28 09:11:00,
2013-06-28 04:16:00,61.0,57.4,29.62,NW,315,8.7,8.7,88,0.00,,,0.04,WUHU21623XXSP,2013-06-28 09:16:00,
2013-06-28 04:21:00,61.0,57.4,29.62,NW,315,3.1,28.4,88,0.00,,,0.04,WUHU21623XXSP,2013-06-28 09:21:00,
2013-06-28 04:26:00,61.0,57.1,29.62,WNW,292,1.1,28.4,87,0.00,,,0.04,WUHU21623XXSP,2013-06-28 09:26:00,
2013-06-28 04:31:00,61.0,57.4,29.62,NW,315,4.3,5.1,88,0.00,,,0.04,WUHU21623XXSP,2013-06-28 09:31:00,
2013-06-28 04:36:00,61.0,57.4,29.62,NNW,337,3.8,5.6,88,0.00,,,0.04,WUHU21623XXSP,2013-06-28 09:36:00,
2013-06-28 04:41:00,61.0,57.4,29.62,NNW,337,1.1,7.6,88,0.00,,,0.04,WUHU21623XXSP,2013-06-28 09:41:00,
2013-06-28 04:46:00,61.0,57.4,29.62,WNW,292,0.0,9.6,88,0.00,,,0.04,WUHU21623XXSP,2013-06-28 09:46:00,
2013-06-28 04:51:00,60.8,57.3,29.62,NW,315,1.3,9.6,88,0.02,,,0.06,WUHU21623XXSP,2013-06-28 09:51:00,
2013-06-28 04:56:00,61.0,57.4,29.62,NW,315,0.0,7.6,88,0.02,,,0.06,WUHU21623XXSP,2013-06-28 09:56:00,
2013-06-28 05:01:00,60.8,57.3,29.62,NW,315,4.3,9.2,88,0.02,,,0.06,WUHU21623XXSP,2013-06-28 10:01:00,
2013-06-28 05:06:00,60.6,57.1,29.62,NW,315,1.1,9.2,88,0.02,,,0.06,WUHU21623XXSP,2013-06-28 10:06:00,
2013-06-28 05:11:00,60.8,57.3,29.62,NW,315,4.9,11.2,88,0.02,,,0.06,WUHU21623XXSP,2013-06-28 10:11:00,
2013-06-28 05:16:00,60.8,57.3,29.63,WNW,292,3.6,11.2,88,0.02,,,0.06,WUHU21623XXSP,2013-06-28 10:16:00,
2013-06-28 05:21:00,60.8,57.3,29.62,NW,315,5.8,8.7,88,0.02,,,0.06,WUHU21623XXSP,2013-06-28 10:21:00,
2013-06-28 05:26:00,60.8,57.3,29.63,WNW,292,1.6,10.1,88,0.02,,,0.06,WUHU21623XXSP,2013-06-28 10:26:00,
2013-06-28 05:31:00,61.0,57.4,29.63,NNW,337,5.8,10.1,88,0.02,,,0.06,WUHU21623XXSP,2013-06-28 10:31:00,
2013-06-28 05:36:00,61.0,57.4,29.63,NW,315,3.4,10.1,88,0.02,,,0.06,WUHU21623XXSP,2013-06-28 10:36:00,
2013-06-28 05:41:00,61.0,57.4,29.63,WNW,292,1.3,10.5,88,0.02,,,0.06,WUHU21623XXSP,2013-06-28 10:41:00,
2013-06-28 05:46:00,61.0,57.4,29.63,WNW,292,0.0,10.5,88,0.02,,,0.06,WUHU21623XXSP,2013-06-28 10:46:00,
2013-06-28 05:51:00,61.0,57.4,29.63,NW,315,2.0,8.5,88,0.00,,,0.06,WUHU21623XXSP,2013-06-28 10:51:00,
2013-06-28 05:56:00,61.0,57.4,29.63,NW,315,8.5,8.5,88,0.00,,,0.06,WUHU21623XXSP,2013-06-28 10:56:00,
2013-06-28 06:01:00,61.0,57.4,29.63,WNW,292,1.8,8.5,88,0.00,,,0.06,WUHU21623XXSP,2013-06-28 11:01:00,
2013-06-28 06:06:00,61.0,57.4,29.64,WNW,292,2.0,8.5,88,0.00,,,0.06,WUHU21623XXSP,2013-06-28 11:06:00,
2013-06-28 06:11:00,61.0,57.4,29.64,NW,315,3.8,7.2,88,0.00,,,0.06,WUHU21623XXSP,2013-06-28 11:11:00,
2013-06-28 06:16:00,61.0,57.4,29.64,NNW,337,3.8,28.4,88,0.00,,,0.06,WUHU21623XXSP,2013-06-28 11:16:00,
2013-06-28 06:21:00,61.0,57.4,29.64,NW,315,3.8,28.4,88,0.00,,,0.06,WUHU21623XXSP,2013-06-28 11:21:00,
2013-06-28 06:26:00,61.2,57.6,29.64,NW,315,2.7,9.2,88,0.00,,,0.06,WUHU21623XXSP,2013-06-28 11:26:00,
2013-06-28 06:31:00,61.3,57.8,29.63,WNW,292,3.6,28.4,88,0.00,,,0.06,WUHU21623XXSP,2013-06-28 11:31:00,
2013-06-28 06:36:00,61.3,57.8,29.64,NW,315,4.5,28.4,88,0.00,,,0.06,WUHU21623XXSP,2013-06-28 11:36:00,
2013-06-28 06:41:00,61.3,57.8,29.64,NW,315,6.9,28.4,88,0.00,,,0.06,WUHU21623XXSP,2013-06-28 11:41:00,
2013-06-28 06:46:00,61.5,58.0,29.64,NW,315,4.0,8.1,88,0.00,,,0.06,WUHU21623XXSP,2013-06-28 11:46:00,
2013-06-28 06:51:00,61.5,58.0,29.64,NW,315,2.9,6.9,88,0.00,,,0.06,WUHU21623XXSP,2013-06-28 11:51:00,
2013-06-28 06:56:00,61.7,58.2,29.64,NW,315,6.3,6.5,88,0.00,,,0.06,WUHU21623XXSP,2013-06-28 11:56:00,
2013-06-28 07:01:00,61.9,58.3,29.64,NNW,337,5.4,8.1,88,0.00,,,0.06,WUHU21623XXSP,2013-06-28 12:01:00,
2013-06-28 07:06:00,62.2,58.7,29.65,NW,315,2.2,8.1,88,0.00,,,0.06,WUHU21623XXSP,2013-06-28 12:06:00,
2013-06-28 07:11:00,62.4,58.9,29.65,NW,315,0.0,8.5,88,0.00,,,0.06,WUHU21623XXSP,2013-06-28 12:11:00,
2013-06-28 07:16:00,62.2,58.7,29.65,WNW,292,2.0,8.5,88,0.00,,,0.06,WUHU21623XXSP,2013-06-28 12:16:00,
2013-06-28 07:21:00,62.4,58.5,29.65,NW,315,0.0,6.0,87,0.00,,,0.06,WUHU21623XXSP,2013-06-28 12:21:00,
2013-06-28 07:26:00,62.4,58.5,29.65,NW,315,1.3,6.0,87,0.00,,,0.06,WUHU21623XXSP,2013-06-28 12:26:00,
2013-06-28 07:31:00,62.4,58.5,29.65,NW,315,4.0,6.0,87,0.00,,,0.06,WUHU21623XXSP,2013-06-28 12:31:00,
2013-06-28 07:36:00,62.4,58.5,29.65,NW,315,5.1,6.0,87,0.00,,,0.06,WUHU21623XXSP,2013-06-28 12:36:00,
2013-06-28 07:41:00,62.4,58.5,29.65,NNW,337,3.4,5.6,87,0.00,,,0.06,WUHU21623XXSP,2013-06-28 12:41:00,
2013-06-28 07:46:00,62.4,58.5,29.65,NW,315,1.6,6.5,87,0.00,,,0.06,WUHU21623XXSP,2013-06-28 12:46:00,
2013-06-28 07:51:00,62.4,58.5,29.65,NW,315,2.2,7.4,87,0.02,,,0.08,WUHU21623XXSP,2013-06-28 12:51:00,
2013-06-28 07:56:00,62.4,58.5,29.65,NNW,337,5.6,7.4,87,0.02,,,0.08,WUHU21623XXSP,2013-06-28 12:56:00,
2013-06-28 08:01:00,62.4,58.5,29.65,NW,315,3.6,7.6,87,0.02,,,0.08,WUHU21623XXSP,2013-06-28 13:01:00,
2013-06-28 08:06:00,62.1,58.2,29.65,WNW,292,5.1,8.7,87,0.02,,,0.08,WUHU21623XXSP,2013-06-28 13:06:00,
2013-06-28 08:11:00,61.9,58.0,29.65,NNW,337,6.3,8.7,87,0.02,,,0.08,WUHU21623XXSP,2013-06-28 13:11:00,
2013-06-28 08:16:00,61.7,57.8,29.66,NW,315,3.6,7.4,87,0.02,,,0.08,WUHU21623XXSP,2013-06-28 13:16:00,
2013-06-28 08:21:00,61.9,58.0,29.66,NW,315,5.4,28.4,87,0.02,,,0.08,WUHU21623XXSP,2013-06-28 13:21:00,
2013-06-28 08:26:00,61.9,58.0,29.66,NW,315,6.7,28.4,87,0.02,,,0.08,WUHU21623XXSP,2013-06-28 13:26:00,
2013-06-28 08:31:00,61.9,58.3,29.66,WNW,292,4.0,7.4,88,0.02,,,0.08,WUHU21623XXSP,2013-06-28 13:31:00,
2013-06-28 08:36:00,61.7,58.2,29.66,NW,315,7.8,11.4,88,0.02,,,0.08,WUHU21623XXSP,2013-06-28 13:36:00,
2013-06-28 08:41:00,61.9,58.0,29.66,NNW,337,3.1,11.4,87,0.02,,,0.08,WUHU21623XXSP,2013-06-28 13:41:00,
2013-06-28 08:46:00,61.9,58.0,29.66,NW,315,6.0,8.3,87,0.02,,,0.08,WUHU21623XXSP,2013-06-28 13:46:00,
2013-06-28 08:51:00,61.9,58.0,29.66,NW,315,7.2,8.5,87,0.02,,,0.10,WUHU21623XXSP,2013-06-28 13:51:00,
2013-06-28 08:56:00,61.9,58.0,29.67,WNW,292,6.0,28.4,87,0.02,,,0.10,WUHU21623XXSP,2013-06-28 13:56:00,
2013-06-28 09:01:00,61.7,57.8,29.66,WNW,292,2.9,28.4,87,0.02,,,0.10,WUHU21623XXSP,2013-06-28 14:01:00,
2013-06-28 09:06:00,61.9,58.0,29.67,NNW,337,4.9,8.5,87,0.02,,,0.10,WUHU21623XXSP,2013-06-28 14:06:00,
2013-06-28 09:11:00,62.4,58.5,29.67,NW,315,1.8,8.5,87,0.02,,,0.10,WUHU21623XXSP,2013-06-28 14:11:00,
2013-06-28 09:16:00,63.1,59.2,29.67,NW,315,3.6,7.2,87,0.02,,,0.10,WUHU21623XXSP,2013-06-28 14:16:00,
2013-06-28 09:21:00,63.1,59.2,29.67,NW,315,8.3,8.3,87,0.02,,,0.10,WUHU21623XXSP,2013-06-28 14:21:00,
2013-06-28 09:26:00,63.5,59.6,29.67,NW,315,5.6,8.3,87,0.02,,,0.10,WUHU21623XXSP,2013-06-28 14:26:00,
2013-06-28 09:31:00,63.5,59.6,29.67,NW,315,2.7,8.1,87,0.02,,,0.10,WUHU21623XXSP,2013-06-28 14:31:00,
2013-06-28 09:36:00,63.1,59.2,29.67,NW,315,1.8,8.1,87,0.02,,,0.10,WUHU21623XXSP,2013-06-28 14:36:00,
2013-06-28 09:41:00,62.4,58.2,29.67,NW,315,2.0,8.3,86,0.02,,,0.10,WUHU21623XXSP,2013-06-28 14:41:00,
2013-06-28 09:46:00,62.4,58.2,29.67,NW,315,6.5,8.7,86,0.02,,,0.10,WUHU21623XXSP,2013-06-28 14:46:00,
2013-06-28 09:51:00,63.1,59.2,29.67,NW,315,3.1,8.9,87,0.00,,,0.10,WUHU21623XXSP,2013-06-28 14:51:00,
2013-06-28 09:56:00,63.0,58.7,29.68,NW,315,6.9,8.9,86,0.00,,,0.10,WUHU21623XXSP,2013-06-28 14:56:00,
2013-06-28 10:01:00,63.1,58.9,29.68,WNW,292,2.0,8.3,86,0.00,,,0.10,WUHU21623XXSP,2013-06-28 15:01:00,
2013-06-28 10:06:00,63.3,59.1,29.67,West,270,2.9,6.7,86,0.00,,,0.10,WUHU21623XXSP,2013-06-28 15:06:00,
2013-06-28 10:11:00,63.3,59.1,29.68,NNW,337,5.6,6.9,86,0.00,,,0.10,WUHU21623XXSP,2013-06-28 15:11:00,
2013-06-28 10:16:00,63.3,59.1,29.68,WNW,292,1.1,6.9,86,0.00,,,0.10,WUHU21623XXSP,2013-06-28 15:16:00,
2013-06-28 10:21:00,63.7,59.4,29.68,West,270,0.0,6.7,86,0.00,,,0.10,WUHU21623XXSP,2013-06-28 15:21:00,
2013-06-28 10:26:00,63.5,59.2,29.68,NW,314,4.0,8.1,86,0.02,,,0.12,WUHU21623XXSP,2013-06-28 15:26:00,
2013-06-28 10:31:00,63.7,59.4,29.68,NW,315,5.4,8.1,86,0.02,,,0.12,WUHU21623XXSP,2013-06-28 15:31:00,
2013-06-28 10:36:00,64.0,59.8,29.68,WNW,292,0.0,10.1,86,0.02,,,0.12,WUHU21623XXSP,2013-06-28 15:36:00,
2013-06-28 10:41:00,64.0,59.8,29.68,NW,315,4.9,10.1,86,0.02,,,0.12,WUHU21623XXSP,2013-06-28 15:41:00,
2013-06-28 10:46:00,64.9,60.7,29.68,NW,315,3.4,7.8,86,0.02,,,0.12,WUHU21623XXSP,2013-06-28 15:46:00,
2013-06-28 10:51:00,65.5,60.5,29.68,NNW,337,7.2,11.0,84,0.02,,,0.12,WUHU21623XXSP,2013-06-28 15:51:00,
2013-06-28 10:56:00,65.5,60.6,29.68,WNW,303,4.3,11.0,84,0.02,,,0.12,WUHU21623XXSP,2013-06-28 15:56:00,
2013-06-28 11:01:00,65.5,60.2,29.68,WNW,303,4.4,7.2,83,0.02,,,0.12,WUHU21623XXSP,2013-06-28 16:01:00,
2013-06-28 11:06:00,65.7,60.4,29.68,WNW,302,4.0,6.9,83,0.02,,,0.12,WUHU21623XXSP,2013-06-28 16:06:00,
2013-06-28 11:11:00,65.5,59.9,29.69,WNW,303,3.7,6.9,82,0.02,,,0.12,WUHU21623XXSP,2013-06-28 16:11:00,
2013-06-28 11:16:00,64.9,59.3,29.69,WNW,302,4.0,6.9,82,0.02,,,0.12,WUHU21623XXSP,2013-06-28 16:16:00,
2013-06-28 11:21:00,64.8,59.1,29.69,WNW,292,0.7,8.1,82,0.02,,,0.12,WUHU21623XXSP,2013-06-28 16:21:00,
2013-06-28 11:26:00,64.9,59.6,29.69,NW,306,4.2,8.1,83,0.00,,,0.12,WUHU21623XXSP,2013-06-28 16:26:00,
2013-06-28 11:31:00,64.8,59.5,29.69,NNW,337,3.4,8.1,83,0.00,,,0.12,WUHU21623XXSP,2013-06-28 16:31:00,
2013-06-28 11:36:00,65.3,60.4,29.69,NW,312,4.0,8.1,84,0.00,,,0.12,WUHU21623XXSP,2013-06-28 16:36:00,
2013-06-28 11:41:00,67.3,61.7,29.69,NW,311,4.0,7.6,82,0.00,,,0.12,WUHU21623XXSP,2013-06-28 16:41:00,
2013-06-28 11:46:00,67.3,61.3,29.69,NNW,337,3.8,7.4,81,0.00,,,0.12,WUHU21623XXSP,2013-06-28 16:46:00,
2013-06-28 11:51:00,67.1,61.1,29.69,NW,315,2.5,8.7,81,0.00,,,0.12,WUHU21623XXSP,2013-06-28 16:51:00,
2013-06-28 11:56:00,66.9,60.9,29.69,NNE,22,0.0,8.7,81,0.00,,,0.12,WUHU21623XXSP,2013-06-28 16:56:00,
2013-06-28 12:01:00,67.3,60.8,29.70,NW,315,4.3,8.7,80,0.00,,,0.12,WUHU21623XXSP,2013-06-28 17:01:00,
2013-06-28 12:06:00,68.2,61.5,29.70,NW,315,3.6,8.7,79,0.00,,,0.12,WUHU21623XXSP,2013-06-28 17:06:00,
2013-06-28 12:10:00,68.2,61.1,29.70,NNW,337,3.6,8.7,78,0.00,,,0.12,WUHU21623XXSP,2013-06-28 17:10:00,
2013-06-28 12:16:00,67.8,60.8,29.70,NW,315,6.7,8.7,78,0.00,,,0.12,WUHU21623XXSP,2013-06-28 17:16:00,
2013-06-28 12:22:00,67.6,60.6,29.70,NW,315,2.7,8.3,78,0.00,,,0.12,WUHU21623XXSP,2013-06-28 17:22:00,
2013-06-28 12:29:00,68.2,61.5,29.70,WNW,292,1.6,8.9,79,0.00,,,0.12,WUHU21623XXSP,2013-06-28 17:29:00,
2013-06-28 12:36:00,70.7,62.3,29.70,NW,315,3.8,8.3,75,0.00,,,0.12,WUHU21623XXSP,2013-06-28 17:36:00,
2013-06-28 12:43:00,69.6,61.3,29.70,NW,315,0.0,7.8,75,0.00,,,0.12,WUHU21623XXSP,2013-06-28 17:43:00,
2013-06-28 12:50:00,69.1,61.5,29.70,NW,315,1.1,7.8,77,0.00,,,0.12,WUHU21623XXSP,2013-06-28 17:50:00,
2013-06-28 12:57:00,68.9,61.4,29.70,NNW,337,1.8,6.9,77,0.00,,,0.12,WUHU21623XXSP,2013-06-28 17:57:00,
2013-06-28 13:04:00,69.1,61.5,29.70,WNW,292,0.7,7.4,77,0.00,,,0.12,WUHU21623XXSP,2013-06-28 18:04:00,
2013-06-28 13:11:00,70.0,62.0,29.70,NNW,337,0.0,5.1,76,0.00,,,0.12,WUHU21623XXSP,2013-06-28 18:11:00,
2013-06-28 13:16:00,70.3,61.6,29.70,NW,315,2.5,6.0,74,0.00,,,0.12,WUHU21623XXSP,2013-06-28 18:16:00,
2013-06-28 13:21:00,70.3,62.0,29.70,NW,315,0.0,6.3,75,0.00,,,0.12,WUHU21623XXSP,2013-06-28 18:21:00,
2013-06-28 13:26:00,71.8,63.0,29.70,WNW,292,0.0,7.2,74,0.00,,,0.12,WUHU21623XXSP,2013-06-28 18:26:00,
2013-06-28 13:32:00,70.9,61.4,29.70,NW,315,1.3,8.3,72,0.00,,,0.12,WUHU21623XXSP,2013-06-28 18:32:00,
2013-06-28 13:37:00,70.5,62.2,29.70,NW,315,1.3,8.3,75,0.00,,,0.12,WUHU21623XXSP,2013-06-28 18:37:00,
2013-06-28 13:42:00,71.2,62.5,29.70,NW,315,0.9,5.1,74,0.00,,,0.12,WUHU21623XXSP,2013-06-28 18:42:00,
2013-06-28 13:47:00,71.2,62.9,29.69,NW,315,0.0,5.1,75,0.00,,,0.12,WUHU21623XXSP,2013-06-28 18:47:00,
2013-06-28 13:52:00,70.9,62.5,29.69,WNW,292,2.2,7.4,75,0.00,,,0.12,WUHU21623XXSP,2013-06-28 18:52:00,
2013-06-28 13:58:00,70.9,62.5,29.69,NW,315,3.6,7.4,75,0.00,,,0.12,WUHU21623XXSP,2013-06-28 18:58:00,
2013-06-28 14:03:00,70.5,61.4,29.69,NW,315,0.0,7.4,73,0.00,,,0.12,WUHU21623XXSP,2013-06-28 19:03:00,
2013-06-28 14:08:00,71.2,63.2,29.69,NW,315,0.0,4.9,76,0.00,,,0.12,WUHU21623XXSP,2013-06-28 19:08:00,
2013-06-28 14:19:00,72.3,62.4,29.69,NNW,337,1.8,6.0,71,0.00,,,0.12,WUHU21623XXSP,2013-06-28 19:19:00,
2013-06-28 14:24:00,70.2,62.2,29.70,NW,315,0.0,6.0,76,0.00,,,0.12,WUHU21623XXSP,2013-06-28 19:24:00,
2013-06-28 14:30:00,68.4,61.6,29.70,NW,315,0.0,4.5,79,0.00,,,0.12,WUHU21623XXSP,2013-06-28 19:30:00,
2013-06-28 14:35:00,68.5,61.1,29.69,NNW,337,0.0,4.0,77,0.00,,,0.12,WUHU21623XXSP,2013-06-28 19:35:00,
2013-06-28 14:40:00,69.6,60.9,29.70,NNW,337,1.3,4.0,74,0.00,,,0.12,WUHU21623XXSP,2013-06-28 19:40:00,
2013-06-28 14:45:00,71.2,61.7,29.69,NNW,337,2.0,2.0,72,0.00,,,0.12,WUHU21623XXSP,2013-06-28 19:45:00,
2013-06-28 14:50:00,72.3,62.1,29.69,NNE,22,0.7,3.6,70,0.00,,,0.12,WUHU21623XXSP,2013-06-28 19:50:00,
2013-06-28 14:55:00,70.9,60.6,29.69,East,90,1.8,3.6,70,0.00,,,0.12,WUHU21623XXSP,2013-06-28 19:55:00,
2013-06-28 15:00:00,70.9,61.8,29.69,ENE,67,0.0,3.4,73,0.00,,,0.12,WUHU21623XXSP,2013-06-28 20:00:00,
2013-06-28 15:05:00,71.8,62.7,29.69,ENE,67,0.0,3.1,73,0.00,,,0.12,WUHU21623XXSP,2013-06-28 20:05:00,
2013-06-28 15:10:00,70.3,62.7,29.70,NW,315,3.6,5.8,77,0.00,,,0.12,WUHU21623XXSP,2013-06-28 20:10:00,
2013-06-28 15:15:00,67.3,61.0,29.70,NNW,337,0.0,6.7,80,0.04,,,0.16,WUHU21623XXSP,2013-06-28 20:15:00,
2013-06-28 15:20:00,66.4,61.1,29.70,WNW,292,0.4,6.7,83,0.04,,,0.16,WUHU21623XXSP,2013-06-28 20:20:00,
2013-06-28 15:25:00,66.4,61.4,29.70,West,270,0.0,2.2,84,0.06,,,0.18,WUHU21623XXSP,2013-06-28 20:25:00,
2013-06-28 15:30:00,66.0,61.3,29.70,West,270,0.0,2.5,85,0.06,,,0.18,WUHU21623XXSP,2013-06-28 20:30:00,
2013-06-28 15:35:00,65.8,60.8,29.70,SSE,157,0.0,2.5,84,0.06,,,0.18,WUHU21623XXSP,2013-06-28 20:35:00,
2013-06-28 15:40:00,65.3,60.3,29.70,SSE,157,0.0,1.6,84,0.06,,,0.18,WUHU21623XXSP,2013-06-28 20:40:00,
2013-06-28 15:45:00,66.7,62.1,29.70,South,180,0.0,0.4,85,0.06,,,0.18,WUHU21623XXSP,2013-06-28 20:45:00,
2013-06-28 15:50:00,67.6,63.0,29.70,SSW,202,0.0,0.4,85,0.06,,,0.18,WUHU21623XXSP,2013-06-28 20:50:00,
2013-06-28 15:55:00,67.3,62.6,29.71,NW,315,0.0,3.8,85,0.06,,,0.18,WUHU21623XXSP,2013-06-28 20:55:00,
2013-06-28 16:00:00,66.9,61.9,29.71,NW,315,6.3,6.3,84,0.06,,,0.18,WUHU21623XXSP,2013-06-28 21:00:00,
2013-06-28 16:05:00,66.4,61.4,29.71,NW,315,0.7,6.3,84,0.06,,,0.18,WUHU21623XXSP,2013-06-28 21:05:00,
2013-06-28 16:10:00,66.2,61.2,29.71,NW,315,0.0,5.6,84,0.06,,,0.18,WUHU21623XXSP,2013-06-28 21:10:00,
2013-06-28 16:14:00,66.2,61.5,29.71,NW,315,0.0,2.5,85,0.02,,,0.18,WUHU21623XXSP,2013-06-28 21:14:00,
2013-06-28 16:19:00,66.4,61.7,29.71,NW,315,0.0,2.2,85,0.02,,,0.18,WUHU21623XXSP,2013-06-28 21:19:00,
2013-06-28 16:24:00,66.7,62.1,29.72,NW,315,0.0,4.5,85,0.00,,,0.18,WUHU21623XXSP,2013-06-28 21:24:00,
2013-06-28 16:29:00,66.7,61.7,29.72,NW,315,0.9,4.9,84,0.00,,,0.18,WUHU21623XXSP,2013-06-28 21:29:00,
2013-06-28 16:34:00,66.2,61.5,29.72,NW,315,0.0,4.9,85,0.02,,,0.20,WUHU21623XXSP,2013-06-28 21:34:00,
2013-06-28 16:39:00,66.4,62.0,29.72,NW,315,1.6,2.9,86,0.04,,,0.22,WUHU21623XXSP,2013-06-28 21:39:00,
2013-06-28 16:44:00,66.6,62.2,29.71,WNW,292,0.2,4.0,86,0.04,,,0.22,WUHU21623XXSP,2013-06-28 21:44:00,
2013-06-28 16:49:00,66.9,62.6,29.71,WNW,292,3.1,4.0,86,0.04,,,0.22,WUHU21623XXSP,2013-06-28 21:49:00,
2013-06-28 16:54:00,67.3,62.9,29.71,NNW,337,3.8,6.5,86,0.04,,,0.22,WUHU21623XXSP,2013-06-28 21:54:00,
2013-06-28 16:59:00,67.8,63.5,29.71,NW,315,1.6,6.5,86,0.04,,,0.22,WUHU21623XXSP,2013-06-28 21:59:00,
2013-06-28 17:04:00,67.8,63.1,29.71,NW,315,1.6,5.6,85,0.04,,,0.22,WUHU21623XXSP,2013-06-28 22:04:00,
2013-06-28 17:10:00,67.8,62.5,29.70,WSW,247,0.7,5.6,83,0.04,,,0.22,WUHU21623XXSP,2013-06-28 22:10:00,
2013-06-28 17:15:00,68.7,63.3,29.70,NW,315,2.5,3.8,83,0.04,,,0.22,WUHU21623XXSP,2013-06-28 22:15:00,
2013-06-28 17:20:00,68.2,62.8,29.70,NW,315,0.0,5.6,83,0.04,,,0.22,WUHU21623XXSP,2013-06-28 22:20:00,
2013-06-28 17:25:00,68.2,62.8,29.70,WSW,247,1.3,5.6,83,0.04,,,0.22,WUHU21623XXSP,2013-06-28 22:25:00,
2013-06-28 17:30:00,68.7,63.0,29.71,WSW,247,0.0,6.7,82,0.04,,,0.22,WUHU21623XXSP,2013-06-28 22:30:00,
2013-06-28 17:35:00,69.6,63.5,29.71,West,270,0.7,6.9,81,0.00,,,0.22,WUHU21623XXSP,2013-06-28 22:35:00,
2013-06-28 17:39:00,69.8,62.9,29.72,NW,315,3.6,6.9,79,0.00,,,0.22,WUHU21623XXSP,2013-06-28 22:39:00,
2013-06-28 17:44:00,69.4,62.6,29.72,NW,315,2.9,4.9,79,0.00,,,0.22,WUHU21623XXSP,2013-06-28 22:44:00,
2013-06-28 17:49:00,69.4,63.0,29.72,NW,315,1.1,3.1,80,0.00,,,0.22,WUHU21623XXSP,2013-06-28 22:49:00,
2013-06-28 17:54:00,70.2,63.7,29.71,West,270,2.2,3.6,80,0.00,,,0.22,WUHU21623XXSP,2013-06-28 22:54:00,
2013-06-28 17:59:00,70.3,63.1,29.71,NE,45,0.0,4.3,78,0.00,,,0.22,WUHU21623XXSP,2013-06-28 22:59:00,
2013-06-28 18:04:00,70.0,63.3,29.71,WNW,296,1.5,4.3,79,0.00,,,0.22,WUHU21623XXSP,2013-06-28 23:04:00,
2013-06-28 18:10:00,68.9,62.8,29.72,NNW,337,6.5,9.4,81,0.02,,,0.24,WUHU21623XXSP,2013-06-28 23:10:00,
2013-06-28 18:15:00,66.0,60.7,29.72,West,270,0.0,9.4,83,0.08,,,0.30,WUHU21623XXSP,2013-06-28 23:15:00,
2013-06-28 18:20:00,65.1,60.5,29.72,NW,315,2.7,7.4,85,0.08,,,0.30,WUHU21623XXSP,2013-06-28 23:20:00,
2013-06-28 18:25:00,64.9,60.3,29.72,WNW,292,3.1,6.3,85,0.08,,,0.30,WUHU21623XXSP,2013-06-28 23:25:00,
2013-06-28 18:30:00,65.1,60.8,29.72,NW,315,1.3,6.9,86,0.08,,,0.30,WUHU21623XXSP,2013-06-28 23:30:00,
2013-06-28 18:34:00,65.1,60.8,29.73,NNE,22,0.0,6.9,86,0.08,,,0.30,WUHU21623XXSP,2013-06-28 23:34:00,
2013-06-28 18:40:00,64.8,60.5,29.73,NW,315,0.0,5.8,86,0.08,,,0.30,WUHU21623XXSP,2013-06-28 23:40:00,
2013-06-28 18:44:00,64.2,60.0,29.73,ENE,67,0.0,6.7,86,0.08,,,0.30,WUHU21623XXSP,2013-06-28 23:44:00,
2013-06-28 18:50:00,64.2,60.0,29.73,North,0,0.0,6.7,86,0.08,,,0.30,WUHU21623XXSP,2013-06-28 23:50:00,
2013-06-28 18:55:00,64.0,59.8,29.73,NNE,22,0.0,2.0,86,0.08,,,0.30,WUHU21623XXSP,2013-06-28 23:55:00,
2013-06-28 19:00:00,64.0,59.8,29.73,WSW,247,0.0,2.0,86,0.08,,,0.30,WUHU21623XXSP,2013-06-29 00:00:00,
2013-06-28 19:05:00,64.0,59.8,29.73,NNW,337,0.9,4.9,86,0.08,,,0.30,WUHU21623XXSP,2013-06-29 00:05:00,
2013-06-28 19:10:00,63.7,59.4,29.74,NNW,337,0.0,4.9,86,0.04,,,0.30,WUHU21623XXSP,2013-06-29 00:10:00,
2013-06-28 19:15:00,64.0,59.8,29.74,NNW,337,0.0,0.9,86,0.00,,,0.30,WUHU21623XXSP,2013-06-29 00:15:00,
2013-06-28 19:20:00,64.2,60.3,29.74,NNW,337,0.9,1.3,87,0.00,,,0.30,WUHU21623XXSP,2013-06-29 00:20:00,
2013-06-28 19:25:00,64.2,60.3,29.74,NW,315,0.7,4.3,87,0.00,,,0.30,WUHU21623XXSP,2013-06-29 00:25:00,
2013-06-28 19:30:00,64.2,60.3,29.74,WNW,292,0.2,4.3,87,0.00,,,0.30,WUHU21623XXSP,2013-06-29 00:30:00,
2013-06-28 19:35:00,64.2,60.3,29.74,WNW,292,0.0,4.3,87,0.00,,,0.30,WUHU21623XXSP,2013-06-29 00:35:00,
2013-06-28 19:40:00,64.2,60.3,29.74,NW,315,0.0,3.1,87,0.00,,,0.30,WUHU21623XXSP,2013-06-29 00:40:00,
2013-06-28 19:45:00,64.2,60.3,29.75,NW,315,0.0,3.1,87,0.00,,,0.30,WUHU21623XXSP,2013-06-29 00:45:00,
2013-06-28 19:50:00,64.2,60.3,29.75,WNW,292,0.4,3.1,87,0.00,,,0.30,WUHU21623XXSP,2013-06-29 00:50:00,
2013-06-28 19:55:00,64.2,60.3,29.75,West,270,0.0,3.6,87,0.00,,,0.30,WUHU21623XXSP,2013-06-29 00:55:00,
2013-06-28 20:00:00,64.2,60.0,29.75,NW,315,5.8,5.8,86,0.00,,,0.30,WUHU21623XXSP,2013-06-29 01:00:00,
2013-06-28 20:05:00,64.0,59.8,29.75,West,270,0.0,7.6,86,0.00,,,0.30,WUHU21623XXSP,2013-06-29 01:05:00,
2013-06-28 20:10:00,64.0,59.8,29.75,NNW,337,3.1,7.6,86,0.00,,,0.30,WUHU21623XXSP,2013-06-29 01:10:00,
2013-06-28 20:15:00,63.7,59.4,29.75,NW,315,0.2,6.7,86,0.00,,,0.30,WUHU21623XXSP,2013-06-29 01:15:00,
2013-06-28 20:19:00,63.5,59.3,29.75,North,0,0.7,6.7,86,0.00,,,0.30,WUHU21623XXSP,2013-06-29 01:19:00,
2013-06-28 20:25:00,63.3,59.1,29.75,NNW,337,1.3,3.4,86,0.00,,,0.30,WUHU21623XXSP,2013-06-29 01:25:00,
2013-06-28 20:29:00,63.3,59.1,29.75,WNW,292,0.0,3.4,86,0.00,,,0.30,WUHU21623XXSP,2013-06-29 01:29:00,
2013-06-28 20:34:00,63.3,59.1,29.75,West,270,0.0,2.5,86,0.00,,,0.30,WUHU21623XXSP,2013-06-29 01:34:00,
2013-06-28 20:39:00,63.0,58.7,29.75,WNW,292,0.0,1.3,86,0.00,,,0.30,WUHU21623XXSP,2013-06-29 01:39:00,
2013-06-28 20:45:00,62.6,58.4,29.76,WNW,292,0.0,2.9,86,0.00,,,0.30,WUHU21623XXSP,2013-06-29 01:45:00,
2013-06-28 20:50:00,62.4,58.2,29.76,WNW,292,0.0,2.9,86,0.00,,,0.30,WUHU21623XXSP,2013-06-29 01:50:00,
2013-06-28 20:54:00,62.4,58.5,29.76,NW,315,0.0,1.1,87,0.00,,,0.30,WUHU21623XXSP,2013-06-29 01:54:00,
2013-06-28 20:59:00,62.2,58.3,29.76,West,270,0.7,1.8,87,0.00,,,0.30,WUHU21623XXSP,2013-06-29 01:59:00,
2013-06-28 21:05:00,62.1,58.2,29.76,West,270,0.0,1.8,87,0.00,,,0.30,WUHU21623XXSP,2013-06-29 02:05:00,
2013-06-28 21:09:00,61.9,57.7,29.76,West,270,0.0,2.2,86,0.00,,,0.30,WUHU21623XXSP,2013-06-29 02:09:00,
2013-06-28 21:14:00,61.9,57.7,29.76,West,270,0.0,2.2,86,0.00,,,0.30,WUHU21623XXSP,2013-06-29 02:14:00,
2013-06-28 21:19:00,61.5,57.3,29.76,West,270,0.0,1.6,86,0.00,,,0.30,WUHU21623XXSP,2013-06-29 02:19:00,
2013-06-28 21:24:00,61.5,57.3,29.77,WSW,247,0.0,0.1,86,0.00,,,0.30,WUHU21623XXSP,2013-06-29 02:24:00,
2013-06-28 21:29:00,61.7,57.5,29.76,WSW,247,0.0,0.0,86,0.00,,,0.30,WUHU21623XXSP,2013-06-29 02:29:00,
2013-06-28 21:34:00,61.7,57.8,29.77,WSW,247,0.0,0.0,87,0.00,,,0.30,WUHU21623XXSP,2013-06-29 02:34:00,
2013-06-28 21:39:00,61.7,57.8,29.77,WNW,292,0.0,2.9,87,0.00,,,0.30,WUHU21623XXSP,2013-06-29 02:39:00,
2013-06-28 21:44:00,61.5,57.6,29.77,West,270,0.0,2.9,87,0.00,,,0.30,WUHU21623XXSP,2013-06-29 02:44:00,
2013-06-28 21:49:00,61.7,57.8,29.77,WNW,292,0.0,0.9,87,0.00,,,0.30,WUHU21623XXSP,2013-06-29 02:49:00,
2013-06-28 21:54:00,61.9,57.7,29.78,WNW,292,0.0,0.9,86,0.00,,,0.30,WUHU21623XXSP,2013-06-29 02:54:00,
2013-06-28 21:59:00,61.9,57.3,29.77,WNW,292,0.0,0.0,85,0.00,,,0.30,WUHU21623XXSP,2013-06-29 02:59:00,
2013-06-28 22:04:00,61.7,57.1,29.77,NNE,22,0.0,0.9,85,0.00,,,0.30,WUHU21623XXSP,2013-06-29 03:04:00,
2013-06-28 22:09:00,61.9,57.3,29.77,NNE,22,0.0,0.9,85,0.00,,,0.30,WUHU21623XXSP,2013-06-29 03:09:00,
2013-06-28 22:14:00,61.5,57.3,29.77,NNE,22,0.0,0.7,86,0.00,,,0.30,WUHU21623XXSP,2013-06-29 03:14:00,
2013-06-28 22:19:00,61.5,57.3,29.77,NNE,22,0.0,0.0,86,0.00,,,0.30,WUHU21623XXSP,2013-06-29 03:19:00,
2013-06-28 22:24:00,61.5,57.3,29.77,South,180,0.0,1.1,86,0.00,,,0.30,WUHU21623XXSP,2013-06-29 03:24:00,
2013-06-28 22:29:00,61.5,57.3,29.77,SSW,202,0.0,1.1,86,0.00,,,0.30,WUHU21623XXSP,2013-06-29 03:29:00,
2013-06-28 22:34:00,61.2,57.0,29.77,SSW,202,0.0,0.1,86,0.00,,,0.30,WUHU21623XXSP,2013-06-29 03:34:00,
2013-06-28 22:39:00,61.2,57.0,29.77,SSW,202,0.0,0.0,86,0.00,,,0.30,WUHU21623XXSP,2013-06-29 03:39:00,
2013-06-28 22:44:00,61.2,57.0,29.77,SSW,202,0.0,0.0,86,0.00,,,0.30,WUHU21623XXSP,2013-06-29 03:44:00,
2013-06-28 22:49:00,61.2,57.0,29.77,SSW,202,0.0,0.0,86,0.00,,,0.30,WUHU21623XXSP,2013-06-29 03:49:00,
2013-06-28 22:50:00,61.2,57.0,29.77,SSW,202,0.0,0.0,86,0.00,,,0.30,WUHU21623XXSP,2013-06-29 03:50:00,
2013-06-28 22:57:00,61.2,57.0,29.77,WSW,247,0.0,0.0,86,0.00,,,0.30,WUHU21623XXSP,2013-06-29 03:57:00,
2013-06-28 23:01:00,61.2,57.0,29.77,WSW,247,0.0,0.0,86,0.00,,,0.30,WUHU21623XXSP,2013-06-29 04:01:00,
2013-06-28 23:06:00,61.0,56.8,29.77,WSW,247,0.0,0.0,86,0.00,,,0.30,WUHU21623XXSP,2013-06-29 04:06:00,
2013-06-28 23:11:00,61.0,56.8,29.77,West,270,0.0,0.7,86,0.00,,,0.30,WUHU21623XXSP,2013-06-29 04:11:00,
2013-06-28 23:16:00,61.0,56.8,29.77,West,270,0.0,0.7,86,0.00,,,0.30,WUHU21623XXSP,2013-06-29 04:16:00,
2013-06-28 23:21:00,60.8,56.6,29.77,West,270,0.0,0.0,86,0.00,,,0.30,WUHU21623XXSP,2013-06-29 04:21:00,
2013-06-28 23:26:00,60.6,56.4,29.77,West,270,0.0,0.0,86,0.00,,,0.30,WUHU21623XXSP,2013-06-29 04:26:00,
2013-06-28 23:31:00,60.8,56.6,29.77,West,270,0.0,0.0,86,0.00,,,0.30,WUHU21623XXSP,2013-06-29 04:31:00,
2013-06-28 23:36:00,60.6,56.4,29.77,West,270,0.0,0.0,86,0.00,,,0.30,WUHU21623XXSP,2013-06-29 04:36:00,
2013-06-28 23:41:00,60.6,56.8,29.77,West,270,0.0,0.0,87,0.00,,,0.30,WUHU21623XXSP,2013-06-29 04:41:00,
2013-06-28 23:46:00,60.4,56.6,29.77,West,270,0.0,0.0,87,0.00,,,0.30,WUHU21623XXSP,2013-06-29 04:46:00,
2013-06-28 23:51:00,60.4,56.6,29.77,West,270,1.1,1.1,87,0.00,,,0.30,WUHU21623XXSP,2013-06-29 04:51:00,
2013-06-28 23:56:00,60.4,56.6,29.77,West,270,0.0,1.1,87,0.00,,,0.30,WUHU21623XXSP,2013-06-29 04:56:00,